Time;durP1;ratioP1;P1;durP2;ratioP2;P2;SDS_P1;SDS_P2;PMS_P1;PMS_P2;Temp;Humidity;BMP_temperature;BMP_pressure;BME280_temperature;BME280_humidity;BME280_pressure;Samples;Min_cycle;Max_cycle;Signal;HPM_P1;HPM_P2
2023/01/16 00:01:13;;;;;;;0.67;0.67;;;;;;;3.63;100.00;100069.38;5073840;28;20233;-81
2023/01/16 00:03:40;;;;;;;0.80;0.80;;;;;;;3.63;100.00;100071.94;5074362;28;20194;-78
2023/01/16 00:06:07;;;;;;;0.63;0.63;;;;;;;3.61;100.00;100076.13;5079067;28;20226;-78
2023/01/16 00:08:34;;;;;;;0.80;0.80;;;;;;;3.46;100.00;100040.50;5092998;28;20622;-80
2023/01/16 00:11:02;;;;;;;0.53;0.53;;;;;;;3.54;100.00;100043.34;5018744;28;20704;-83
2023/01/16 00:13:29;;;;;;;0.73;0.73;;;;;;;3.56;100.00;100052.88;5053967;28;20284;-80
2023/01/16 00:15:55;;;;;;;0.50;0.50;;;;;;;3.60;100.00;100059.88;5054137;28;20195;-79
2023/01/16 00:18:22;;;;;;;0.70;0.70;;;;;;;3.46;100.00;100031.09;5027053;28;20203;-79
2023/01/16 00:20:49;;;;;;;0.70;0.70;;;;;;;3.61;100.00;100073.53;5072379;28;20202;-79
2023/01/16 00:23:16;;;;;;;0.67;0.67;;;;;;;3.62;100.00;100065.06;5071847;28;20285;-81
2023/01/16 00:25:44;;;;;;;0.60;0.60;;;;;;;3.56;100.00;100067.38;5061154;28;20203;-81
2023/01/16 00:28:13;;;;;;;0.90;0.90;;;;;;;3.52;100.00;100060.34;5073443;28;20203;-82
2023/01/16 00:30:41;;;;;;;0.60;0.60;;;;;;;3.48;100.00;100060.22;5055145;28;20195;-80
2023/01/16 00:33:08;;;;;;;4.00;3.80;;;;;;;3.48;100.00;100062.81;5057299;28;20750;-77
2023/01/16 00:35:35;;;;;;;0.70;0.70;;;;;;;3.42;100.00;100061.66;5053188;28;20188;-78
2023/01/16 00:38:02;;;;;;;0.60;0.60;;;;;;;3.38;100.00;100063.22;5061626;28;20214;-81
2023/01/16 00:40:30;;;;;;;0.60;0.60;;;;;;;3.26;100.00;100043.88;5056073;28;20207;-80
2023/01/16 00:42:56;;;;;;;0.70;0.70;;;;;;;3.26;100.00;100062.69;5052683;28;20195;-80
2023/01/16 00:45:24;;;;;;;0.60;0.60;;;;;;;3.24;100.00;100046.38;5064408;28;20205;-78
2023/01/16 00:47:51;;;;;;;0.63;0.63;;;;;;;3.24;100.00;100053.19;5052447;28;20210;-78
2023/01/16 00:50:18;;;;;;;2.43;1.57;;;;;;;3.21;100.00;100053.91;5053614;28;20210;-78
2023/01/16 00:52:45;;;;;;;0.77;0.77;;;;;;;3.22;100.00;100055.66;5067312;28;20635;-79
2023/01/16 00:55:11;;;;;;;0.60;0.60;;;;;;;3.21;100.00;100056.47;5017946;28;20700;-78
2023/01/16 00:57:38;;;;;;;0.70;0.70;;;;;;;3.08;100.00;100031.13;5033660;28;20642;-78
2023/01/16 01:00:06;;;;;;;0.67;0.67;;;;;;;3.22;100.00;100047.97;5065496;28;20203;-79
2023/01/16 01:02:34;;;;;;;0.80;0.80;;;;;;;3.22;100.00;100047.09;5055531;28;20226;-80
2023/01/16 01:05:01;;;;;;;0.60;0.60;;;;;;;3.16;100.00;100042.59;5063931;28;20203;-78
2023/01/16 01:07:28;;;;;;;0.77;0.77;;;;;;;3.18;100.00;100043.53;5054169;28;20292;-77
2023/01/16 01:09:55;;;;;;;0.70;0.70;;;;;;;3.19;100.00;100040.16;5054734;28;20265;-77
2023/01/16 01:12:21;;;;;;;1.70;1.70;;;;;;;3.11;100.00;100018.47;5086125;28;20202;-80
2023/01/16 01:14:48;;;;;;;0.70;0.70;;;;;;;3.21;100.00;100032.56;5072651;28;20258;-79
2023/01/16 01:17:15;;;;;;;1.37;1.37;;;;;;;3.19;100.00;100031.59;5072588;28;20210;-79
2023/01/16 01:19:43;;;;;;;0.70;0.70;;;;;;;3.26;100.00;100037.06;5073229;28;20199;-82
2023/01/16 01:22:10;;;;;;;0.43;0.43;;;;;;;3.19;100.00;100035.03;5072431;28;20199;-82
2023/01/16 01:24:37;;;;;;;0.67;0.67;;;;;;;3.19;100.00;100029.91;5072259;28;20574;-78
2023/01/16 01:27:04;;;;;;;0.50;0.50;;;;;;;3.23;100.00;100026.69;5086547;28;20218;-80
2023/01/16 01:29:30;;;;;;;0.50;0.50;;;;;;;3.18;100.00;100033.28;5081888;28;20253;-78
2023/01/16 01:31:57;;;;;;;0.50;0.50;;;;;;;2.69;100.00;99939.78;5072455;28;20210;-78
2023/01/16 01:34:24;;;;;;;0.50;0.50;;;;;;;3.20;100.00;100023.13;5073156;28;20195;-80
2023/01/16 01:36:52;;;;;;;0.73;0.73;;;;;;;3.24;100.00;100023.31;5071693;28;20588;-80
2023/01/16 01:39:19;;;;;;;0.67;0.67;;;;;;;3.08;100.00;100002.97;5071982;28;20662;-80
2023/01/16 01:41:46;;;;;;;0.70;0.70;;;;;;;3.12;100.00;100003.97;5071978;28;20203;-80
2023/01/16 01:44:47;;;;;;;0.80;0.80;;;;;;;3.23;100.00;100023.25;5072071;28;20670;-81
2023/01/16 01:47:16;;;;;;;0.60;0.60;;;;;;;2.58;100.00;99928.22;5073198;28;20234;-80
2023/01/16 01:49:43;;;;;;;0.80;0.80;;;;;;;2.90;100.00;100017.53;5081475;28;20265;-79
2023/01/16 01:52:11;;;;;;;0.50;0.50;;;;;;;2.78;100.00;100010.16;5072781;28;20201;-81
2023/01/16 01:54:45;;;;;;;0.80;0.80;;;;;;;2.71;100.00;100012.41;5020407;28;20278;-81
2023/01/16 01:57:16;;;;;;;0.77;0.77;;;;;;;2.58;100.00;99990.50;5076541;28;20252;-81
2023/01/16 01:59:47;;;;;;;0.80;0.80;;;;;;;2.64;100.00;100007.84;5082592;28;20191;-81
2023/01/16 02:02:21;;;;;;;2.53;1.97;;;;;;;2.70;100.00;100008.09;5072311;28;20207;-81
2023/01/16 02:04:51;;;;;;;0.50;0.50;;;;;;;2.66;100.00;100009.66;5082853;28;20566;-80
2023/01/16 02:07:20;;;;;;;0.60;0.60;;;;;;;2.65;100.00;100001.88;5071817;28;20235;-79
2023/01/16 02:09:47;;;;;;;0.70;0.70;;;;;;;2.53;100.00;99997.13;5071728;28;20194;-80
2023/01/16 02:12:17;;;;;;;0.70;0.70;;;;;;;2.45;100.00;100003.56;5039597;28;20203;-79
2023/01/16 02:14:47;;;;;;;0.63;0.63;;;;;;;2.41;100.00;100012.78;5071576;28;20214;-79
2023/01/16 02:20:15;;;;;;;0.70;0.70;;;;;;;2.45;100.00;99998.44;5079276;28;20268;-75
2023/01/16 02:23:09;;;;;;;0.60;0.60;;;;;;;2.09;100.00;99966.94;5074478;28;20206;-78
2023/01/16 02:26:20;;;;;;;0.50;0.50;;;;;;;2.36;100.00;100004.00;5084282;28;20223;-78
2023/01/16 02:29:17;;;;;;;0.50;0.50;;;;;;;2.33;100.00;99998.75;4985920;28;20213;-78
2023/01/16 02:31:53;;;;;;;0.90;0.90;;;;;;;2.19;100.00;99969.09;4989316;28;20665;-78
2023/01/16 02:34:44;;;;;;;0.50;0.50;;;;;;;2.30;100.00;99998.63;4986057;28;20346;-78
2023/01/16 02:37:21;;;;;;;0.70;0.70;;;;;;;2.26;100.00;100001.84;4974428;28;20217;-77
2023/01/16 02:39:56;;;;;;;1.30;1.30;;;;;;;2.11;100.00;99985.78;4973572;28;20304;-78
2023/01/16 02:42:30;;;;;;;0.67;0.67;;;;;;;2.18;100.00;100002.28;4984845;28;20252;-79
2023/01/16 02:45:03;;;;;;;0.60;0.60;;;;;;;2.19;100.00;99999.78;4989319;28;20260;-78
2023/01/16 02:47:39;;;;;;;0.60;0.60;;;;;;;2.18;100.00;99994.59;4986653;28;20287;-78
2023/01/16 02:50:21;;;;;;;0.60;0.60;;;;;;;2.09;100.00;99992.50;4970754;28;20693;-79
2023/01/16 02:52:54;;;;;;;0.60;0.60;;;;;;;2.02;100.00;99994.69;4975039;28;20210;-79
2023/01/16 02:55:27;;;;;;;0.77;0.77;;;;;;;1.95;100.00;100001.22;4975845;28;20244;-74
2023/01/16 02:57:58;;;;;;;0.70;0.70;;;;;;;1.89;100.00;99993.25;4973381;28;20209;-79
2023/01/16 03:00:25;;;;;;;0.70;0.70;;;;;;;1.82;100.00;99986.94;4988957;28;20197;-77
2023/01/16 03:02:53;;;;;;;0.60;0.60;;;;;;;1.82;100.00;99989.50;4984259;28;20725;-77
2023/01/16 03:05:20;;;;;;;3.37;3.17;;;;;;;1.50;100.00;99941.09;5078798;28;20271;-77
2023/01/16 03:08:17;;;;;;;0.60;0.60;;;;;;;1.85;100.00;99976.03;5090077;28;20733;-78
2023/01/16 03:11:01;;;;;;;0.80;0.80;;;;;;;1.84;100.00;99982.81;5090730;28;20708;-77
2023/01/16 03:13:44;;;;;;;0.70;0.70;;;;;;;1.93;100.00;99969.56;5084000;28;20279;-77
2023/01/16 03:16:23;;;;;;;0.60;0.60;;;;;;;1.86;100.00;99942.84;5038653;28;20263;-78
2023/01/16 03:19:01;;;;;;;1.07;1.07;;;;;;;1.90;100.00;99956.66;5087317;28;20198;-78
2023/01/16 03:21:42;;;;;;;0.57;0.57;;;;;;;1.95;100.00;99952.63;5082595;28;20206;-78
2023/01/16 03:24:19;;;;;;;0.50;0.50;;;;;;;2.00;100.00;99946.91;5078318;28;20202;-79
2023/01/16 03:26:49;;;;;;;0.50;0.50;;;;;;;1.98;100.00;99942.56;5070892;28;20677;-79
2023/01/16 03:29:25;;;;;;;0.90;0.90;;;;;;;1.80;100.00;99905.91;5030730;28;20226;-80
2023/01/16 03:31:57;;;;;;;0.53;0.53;;;;;;;2.09;100.00;99948.16;5070831;28;20206;-80
2023/01/16 03:34:34;;;;;;;0.60;0.60;;;;;;;2.12;100.00;99935.50;5083945;28;20205;-80
2023/01/16 03:37:05;;;;;;;0.90;0.90;;;;;;;2.11;100.00;99929.50;5090177;28;20205;-77
2023/01/16 03:39:38;;;;;;;1.60;1.43;;;;;;;2.08;100.00;99914.03;5089312;28;20210;-79
2023/01/16 03:42:09;;;;;;;0.57;0.57;;;;;;;2.07;100.00;99922.50;5090405;28;20210;-79
2023/01/16 03:44:40;;;;;;;0.63;0.63;;;;;;;2.10;100.00;99920.13;5024429;28;20203;-77
2023/01/16 03:47:12;;;;;;;0.77;0.77;;;;;;;2.06;100.00;99892.66;5076371;28;20214;-77
2023/01/16 03:49:44;;;;;;;0.70;0.70;;;;;;;1.60;100.00;99807.91;5080368;28;20280;-76
2023/01/16 03:52:15;;;;;;;0.70;0.70;;;;;;;2.23;100.00;99906.19;5084210;28;20650;-78
2023/01/16 03:54:49;;;;;;;0.60;0.60;;;;;;;2.25;100.00;99905.44;5070993;28;20206;-75
2023/01/16 03:57:21;;;;;;;0.60;0.60;;;;;;;2.10;100.00;99876.66;5070268;28;20209;-77
2023/01/16 03:59:50;;;;;;;0.75;0.75;;;;;;;2.70;100.00;99887.81;5085076;28;20444;-77
2023/01/16 04:02:21;;;;;;;0.90;0.90;;;;;;;2.64;100.00;99872.19;5070921;28;20207;-77
2023/01/16 04:04:54;;;;;;;0.67;0.67;;;;;;;2.70;100.00;99895.47;5070113;28;20551;-78
2023/01/16 04:07:27;;;;;;;0.50;0.50;;;;;;;2.81;100.00;99894.25;5079053;28;20245;-77
2023/01/16 04:09:57;;;;;;;0.60;0.60;;;;;;;2.75;100.00;99881.19;5090055;28;20198;-79
2023/01/16 04:12:29;;;;;;;1.77;1.77;;;;;;;2.67;100.00;99887.69;5082075;28;20195;-79
2023/01/16 04:15:00;;;;;;;0.40;0.40;;;;;;;2.61;100.00;99885.72;5071987;28;20198;-79
2023/01/16 04:17:27;;;;;;;0.60;0.60;;;;;;;2.53;100.00;99891.31;5090237;28;20569;-81
2023/01/16 04:19:56;;;;;;;2.83;2.73;;;;;;;2.50;100.00;99898.03;5036855;28;20210;-77
2023/01/16 04:22:25;;;;;;;1.17;1.17;;;;;;;2.50;100.00;99894.59;5086911;28;20211;-77
2023/01/16 04:24:53;;;;;;;0.60;0.60;;;;;;;2.47;100.00;99892.78;5040716;28;20194;-77
2023/01/16 04:27:20;;;;;;;0.70;0.70;;;;;;;2.25;100.00;99891.78;5087457;28;20759;-77
2023/01/16 04:29:47;;;;;;;0.90;0.90;;;;;;;2.17;100.00;99888.91;5073327;28;20558;-77
2023/01/16 04:32:14;;;;;;;0.60;0.60;;;;;;;2.28;100.00;99891.94;5081756;28;20207;-77
2023/01/16 04:34:41;;;;;;;0.70;0.70;;;;;;;2.30;100.00;99890.31;5088332;28;20213;-76
2023/01/16 04:37:12;;;;;;;1.00;1.00;;;;;;;2.44;100.00;99876.44;5075168;28;20256;-77
2023/01/16 04:39:40;;;;;;;0.80;0.80;;;;;;;2.34;100.00;99872.63;5088572;28;20565;-76
2023/01/16 04:42:07;;;;;;;0.63;0.63;;;;;;;2.09;100.00;99843.31;5076300;28;20190;-77
2023/01/16 04:44:34;;;;;;;0.80;0.80;;;;;;;2.12;100.00;99867.34;5081461;28;20201;-76
2023/01/16 04:47:00;;;;;;;2.50;2.40;;;;;;;1.99;100.00;99862.50;5086470;28;20205;-77
2023/01/16 04:49:27;;;;;;;1.00;1.00;;;;;;;1.82;100.00;99853.19;5085275;28;20202;-77
2023/01/16 04:51:54;;;;;;;0.80;0.80;;;;;;;1.77;100.00;99850.44;5091597;28;20226;-77
2023/01/16 04:54:22;;;;;;;0.80;0.80;;;;;;;1.76;100.00;99847.78;5090402;28;20202;-76
2023/01/16 04:56:49;;;;;;;0.60;0.60;;;;;;;1.72;100.00;99838.22;5091256;28;20320;-77
2023/01/16 04:59:16;;;;;;;4.13;1.53;;;;;;;1.11;100.00;99730.69;5091462;28;20245;-76
2023/01/16 05:01:43;;;;;;;0.60;0.60;;;;;;;1.71;100.00;99839.91;5086371;28;20406;-77
2023/01/16 05:04:11;;;;;;;0.70;0.70;;;;;;;1.72;100.00;99840.78;5085096;28;20267;-77
2023/01/16 05:06:37;;;;;;;0.53;0.53;;;;;;;1.75;100.00;99840.94;5092253;28;20210;-77
2023/01/16 05:09:06;;;;;;;0.80;0.80;;;;;;;1.87;100.00;99836.38;5074555;28;20651;-75
2023/01/16 05:11:34;;;;;;;0.57;0.57;;;;;;;1.91;100.00;99836.59;5074639;28;20633;-76
2023/01/16 05:14:02;;;;;;;0.70;0.70;;;;;;;1.74;100.00;99808.53;5081602;28;20206;-77
2023/01/16 05:16:29;;;;;;;0.90;0.90;;;;;;;1.88;100.00;99839.03;5072550;28;20618;-78
2023/01/16 05:18:56;;;;;;;0.70;0.70;;;;;;;1.86;100.00;99829.50;5072581;28;20237;-76
2023/01/16 05:21:23;;;;;;;0.70;0.70;;;;;;;1.75;100.00;99825.63;5028104;28;20226;-78
2023/01/16 05:23:49;;;;;;;0.67;0.67;;;;;;;1.72;100.00;99821.22;5083056;28;20589;-77
2023/01/16 05:26:16;;;;;;;0.47;0.47;;;;;;;1.71;100.00;99827.13;5088670;28;20194;-77
2023/01/16 05:28:45;;;;;;;0.70;0.70;;;;;;;1.82;100.00;99819.97;5090752;28;20309;-78
2023/01/16 05:31:11;;;;;;;1.53;1.47;;;;;;;1.76;100.00;99817.13;5092108;28;20292;-77
2023/01/16 05:33:38;;;;;;;0.70;0.70;;;;;;;1.19;100.00;99718.28;5035872;28;20198;-77
2023/01/16 05:36:05;;;;;;;1.10;1.10;;;;;;;1.77;100.00;99811.22;5072117;28;20198;-78
2023/01/16 05:38:32;;;;;;;0.70;0.70;;;;;;;1.67;100.00;99791.16;5072335;28;20203;-78
2023/01/16 05:40:59;;;;;;;0.70;0.70;;;;;;;1.71;100.00;99777.72;5071891;28;20259;-78
2023/01/16 05:43:26;;;;;;;0.70;0.70;;;;;;;1.88;100.00;99797.25;5076831;28;20230;-77
2023/01/16 05:45:54;;;;;;;0.70;0.70;;;;;;;1.87;100.00;99800.59;5083062;28;20195;-76
2023/01/16 05:48:22;;;;;;;0.70;0.70;;;;;;;1.97;100.00;99810.41;5044702;28;20301;-77
2023/01/16 05:50:49;;;;;;;1.90;1.90;;;;;;;2.06;100.00;99808.28;5072677;28;20249;-78
2023/01/16 05:53:16;;;;;;;0.60;0.60;;;;;;;2.12;100.00;99816.22;5084583;28;20249;-78
2023/01/16 05:55:45;;;;;;;1.07;1.07;;;;;;;2.05;100.00;99785.19;5079771;28;20646;-79
2023/01/16 05:58:12;;;;;;;0.40;0.40;;;;;;;2.08;100.00;99811.75;5072119;28;20214;-79
2023/01/16 06:00:40;;;;;;;0.80;0.80;;;;;;;2.10;100.00;99805.06;5074719;28;20198;-77
2023/01/16 06:03:08;;;;;;;0.80;0.80;;;;;;;2.08;100.00;99798.97;5072217;28;20653;-78
2023/01/16 06:05:36;;;;;;;0.80;0.80;;;;;;;1.80;100.00;99778.13;5087334;28;20194;-80
2023/01/16 06:08:04;;;;;;;0.60;0.60;;;;;;;1.94;100.00;99787.28;5079058;28;20284;-81
2023/01/16 06:10:31;;;;;;;0.50;0.50;;;;;;;2.08;100.00;99790.44;5071778;28;20239;-80
2023/01/16 06:12:58;;;;;;;0.60;0.60;;;;;;;2.11;100.00;99785.44;5080077;28;20201;-80
2023/01/16 06:15:24;;;;;;;0.50;0.50;;;;;;;2.20;100.00;99801.22;5071098;28;20202;-76
2023/01/16 06:17:53;;;;;;;0.63;0.63;;;;;;;2.06;100.00;99800.63;5083941;28;20312;-76
2023/01/16 06:20:22;;;;;;;1.60;1.60;;;;;;;1.84;100.00;99795.34;5039174;28;20198;-79
2023/01/16 06:22:48;;;;;;;1.07;1.07;;;;;;;1.54;100.00;99805.03;5071459;28;20203;-85
2023/01/16 06:25:15;;;;;;;1.87;1.87;;;;;;;1.21;100.00;99803.50;5043215;28;20211;-83
2023/01/16 06:27:42;;;;;;;0.70;0.70;;;;;;;1.11;100.00;99784.31;5049555;28;20593;-85
2023/01/16 06:30:10;;;;;;;1.03;1.03;;;;;;;1.14;100.00;99802.31;5079939;28;20685;-75
2023/01/16 06:32:37;;;;;;;0.80;0.80;;;;;;;1.12;100.00;99773.28;5053139;28;20210;-80
2023/01/16 06:35:05;;;;;;;0.63;0.63;;;;;;;1.45;100.00;99785.09;5078419;28;20206;-81
2023/01/16 06:37:33;;;;;;;0.80;0.80;;;;;;;1.49;100.00;99786.97;5077201;28;20218;-78
2023/01/16 06:40:01;;;;;;;0.90;0.90;;;;;;;1.47;100.00;99762.16;5076661;28;20194;-79
2023/01/16 06:42:28;;;;;;;0.60;0.60;;;;;;;1.70;100.00;99775.97;5076354;28;20207;-80
2023/01/16 06:44:55;;;;;;;0.70;0.70;;;;;;;1.86;100.00;99779.25;5032962;28;20257;-79
2023/01/16 06:47:22;;;;;;;1.93;1.83;;;;;;;1.98;100.00;99763.59;5086014;28;20592;-82
2023/01/16 06:49:49;;;;;;;3.27;3.17;;;;;;;1.97;100.00;99762.72;5036434;28;20321;-81
2023/01/16 06:52:15;;;;;;;0.60;0.60;;;;;;;2.01;100.00;99753.50;5070299;28;20634;-82
2023/01/16 06:54:44;;;;;;;1.63;1.63;;;;;;;2.15;100.00;99752.41;5033585;28;20255;-82
2023/01/16 06:57:10;;;;;;;1.27;1.27;;;;;;;2.19;100.00;99738.94;5085370;28;20211;-79
2023/01/16 06:59:37;;;;;;;0.80;0.80;;;;;;;2.36;100.00;99750.75;5083615;28;20205;-81
2023/01/16 07:02:04;;;;;;;2.30;2.20;;;;;;;2.37;100.00;99739.72;5071421;28;20210;-77
2023/01/16 07:04:31;;;;;;;1.73;1.73;;;;;;;2.30;100.00;99740.28;5081602;28;20210;-77
2023/01/16 07:06:57;;;;;;;3.50;3.20;;;;;;;2.32;100.00;99733.53;5073235;28;20243;-79
2023/01/16 07:09:29;;;;;;;6.17;4.50;;;;;;;2.29;100.00;99729.97;5028232;28;20229;-79
2023/01/16 07:11:57;;;;;;;4.17;3.43;;;;;;;2.40;100.00;99718.50;5074587;28;20317;-81
2023/01/16 07:22:40;;;;;;;1.13;1.13;;;;;;;2.15;100.00;99721.72;5070965;28;20236;-77
2023/01/16 07:25:12;;;;;;;0.60;0.60;;;;;;;2.33;100.00;99709.72;5083218;28;20225;-79
2023/01/16 07:27:41;;;;;;;1.27;1.27;;;;;;;2.61;100.00;99708.25;5078846;28;20210;-78
2023/01/16 07:30:09;;;;;;;1.43;1.43;;;;;;;2.75;100.00;99707.13;5084043;28;20709;-79
2023/01/16 07:32:36;;;;;;;1.63;1.63;;;;;;;2.77;100.00;99706.41;5044864;28;20629;-81
2023/01/16 07:35:03;;;;;;;0.80;0.80;;;;;;;3.10;100.00;99711.97;5073628;28;20210;-78
2023/01/16 07:37:30;;;;;;;0.70;0.70;;;;;;;3.41;100.00;99714.84;5070053;28;20195;-81
2023/01/16 07:39:57;;;;;;;0.80;0.80;;;;;;;3.46;100.00;99726.13;5070803;28;20203;-81
2023/01/16 07:42:24;;;;;;;0.83;0.83;;;;;;;3.57;100.00;99735.94;5090278;28;20205;-79
2023/01/16 07:44:52;;;;;;;0.70;0.70;;;;;;;3.53;100.00;99723.81;5090084;28;20209;-77
2023/01/16 07:47:18;;;;;;;0.60;0.60;;;;;;;3.65;100.00;99744.75;5019181;28;20229;-76
2023/01/16 07:49:45;;;;;;;0.80;0.80;;;;;;;3.79;100.00;99741.88;5047734;28;20648;-76
2023/01/16 07:52:12;;;;;;;1.90;1.80;;;;;;;3.78;100.00;99732.44;5094014;28;20707;-79
2023/01/16 07:54:41;;;;;;;0.70;0.70;;;;;;;3.87;100.00;99750.72;5084208;28;20207;-80
2023/01/16 07:57:07;;;;;;;0.90;0.90;;;;;;;4.15;100.00;99744.00;5090330;28;20206;-82
2023/01/16 07:59:34;;;;;;;0.60;0.60;;;;;;;4.22;100.00;99751.09;5094018;28;20213;-79
2023/01/16 08:02:02;;;;;;;0.80;0.80;;;;;;;4.49;100.00;99731.50;5079295;28;20438;-82
2023/01/16 08:04:29;;;;;;;0.70;0.70;;;;;;;4.80;100.00;99759.94;5073687;28;20206;-82
2023/01/16 08:06:56;;;;;;;1.93;1.93;;;;;;;4.45;100.00;99769.03;5051117;28;20198;-77
2023/01/16 08:09:23;;;;;;;0.70;0.70;;;;;;;4.63;100.00;99775.59;5093570;28;20595;-77
2023/01/16 08:11:50;;;;;;;0.80;0.80;;;;;;;4.29;100.00;99764.19;5093409;28;20614;-74
2023/01/16 08:14:16;;;;;;;0.60;0.60;;;;;;;4.45;100.00;99773.28;5090216;28;20677;-79
2023/01/16 08:16:43;;;;;;;1.23;1.23;;;;;;;4.31;100.00;99780.53;5038036;28;20741;-77
2023/01/16 08:19:11;;;;;;;0.50;0.50;;;;;;;4.46;100.00;99778.47;5088644;28;20194;-76
2023/01/16 08:21:38;;;;;;;0.97;0.97;;;;;;;4.36;100.00;99778.97;5058255;28;20206;-80
2023/01/16 08:24:05;;;;;;;0.70;0.70;;;;;;;4.31;100.00;99782.22;5079298;28;20615;-79
2023/01/16 08:26:33;;;;;;;0.80;0.80;;;;;;;4.41;100.00;99786.84;5073025;28;20199;-83
2023/01/16 08:29:02;;;;;;;0.67;0.67;;;;;;;4.65;100.00;99769.69;5036803;28;20234;-83
2023/01/16 08:31:29;;;;;;;1.47;1.47;;;;;;;4.77;100.00;99777.81;5083187;28;20203;-80
2023/01/16 08:33:56;;;;;;;2.30;1.90;;;;;;;4.95;100.00;99764.69;5092544;28;20665;-82
2023/01/16 08:36:25;;;;;;;3.03;2.93;;;;;;;5.08;100.00;99760.81;5093302;28;20605;-81
2023/01/16 08:38:52;;;;;;;1.00;1.00;;;;;;;4.90;100.00;99750.81;5074987;28;20206;-76
2023/01/16 08:52:36;;;;;;;1.87;1.87;;;;;;;5.21;100.00;99743.25;5010969;28;20277;-79
2023/01/16 08:55:03;;;;;;;0.83;0.83;;;;;;;5.50;100.00;99737.28;5011004;28;20665;-79
2023/01/16 08:57:30;;;;;;;0.73;0.73;;;;;;;5.59;100.00;99720.38;5010835;28;20206;-78
2023/01/16 08:59:57;;;;;;;1.07;1.07;;;;;;;5.87;100.00;99738.38;5010379;28;20205;-78
2023/01/16 09:02:26;;;;;;;0.70;0.70;;;;;;;5.92;100.00;99736.81;5010862;28;20205;-78
2023/01/16 09:04:54;;;;;;;1.17;1.17;;;;;;;5.80;100.00;99715.84;5010814;28;20205;-79
2023/01/16 09:07:22;;;;;;;0.90;0.90;;;;;;;6.00;100.00;99735.28;5010718;28;20778;-79
2023/01/16 09:09:50;;;;;;;0.70;0.70;;;;;;;5.91;100.00;99719.63;5010471;28;20236;-79
2023/01/16 09:15:02;;;;;;;0.70;0.70;;;;;;;6.05;100.00;99720.88;5010761;28;20711;-79
2023/01/16 09:17:29;;;;;;;0.50;0.50;;;;;;;6.16;100.00;99705.72;5010404;28;20710;-78
2023/01/16 09:19:56;;;;;;;0.80;0.80;;;;;;;6.43;100.00;99701.25;5010504;28;20681;-79
2023/01/16 09:22:23;;;;;;;0.77;0.77;;;;;;;6.51;100.00;99699.75;5010531;28;20201;-78
2023/01/16 09:24:52;;;;;;;0.60;0.60;;;;;;;6.81;100.00;99689.34;5062278;28;20206;-79
2023/01/16 09:27:19;;;;;;;0.70;0.70;;;;;;;6.95;100.00;99703.41;5072321;28;20268;-78
2023/01/16 09:29:46;;;;;;;0.80;0.80;;;;;;;6.96;100.00;99699.97;5072215;28;20227;-78
2023/01/16 09:32:13;;;;;;;1.03;1.03;;;;;;;7.18;100.00;99699.63;5072013;28;20209;-79
2023/01/16 09:34:41;;;;;;;0.70;0.70;;;;;;;7.02;100.00;99692.41;5072115;28;20210;-78
2023/01/16 09:37:07;;;;;;;0.70;0.70;;;;;;;7.30;100.00;99702.50;5072050;28;20202;-78
2023/01/16 09:39:34;;;;;;;0.60;0.60;;;;;;;7.56;100.00;99712.50;5071834;28;20613;-79
2023/01/16 09:45:13;;;;;;;0.80;0.80;;;;;;;7.68;100.00;99699.81;5071995;28;20216;-78
2023/01/16 09:47:44;;;;;;;0.60;0.60;;;;;;;7.29;100.00;99695.59;5072032;28;20191;-79
2023/01/16 09:50:16;;;;;;;0.60;0.60;;;;;;;7.49;100.00;99681.38;5071543;28;20241;-78
2023/01/16 09:58:40;;;;;;;0.63;0.63;;;;;;;7.46;100.00;99647.81;5009764;28;20262;-77
2023/01/16 10:01:09;;;;;;;5.60;4.50;;;;;;;7.43;100.00;99668.38;5009684;28;20646;-78
2023/01/16 10:03:42;;;;;;;0.60;0.60;;;;;;;7.46;100.00;99668.44;5009752;28;20229;-78
2023/01/16 10:06:18;;;;;;;6.87;6.27;;;;;;;7.61;100.00;99664.41;5009905;28;20204;-78
2023/01/16 10:08:55;;;;;;;1.17;1.17;;;;;;;7.39;100.00;99666.56;5009390;28;20292;-78
2023/01/16 10:11:27;;;;;;;1.23;1.23;;;;;;;7.38;100.00;99651.91;5009080;28;20235;-78
2023/01/16 10:14:13;;;;;;;0.40;0.40;;;;;;;7.59;100.00;99651.50;5009250;28;20585;-77
2023/01/16 10:16:53;;;;;;;1.10;1.10;;;;;;;7.49;100.00;99658.19;4960633;28;20601;-77
2023/01/16 10:19:32;;;;;;;0.70;0.70;;;;;;;7.60;100.00;99647.22;5009617;28;20207;-78
2023/01/16 10:22:13;;;;;;;1.30;1.30;;;;;;;7.54;100.00;99622.16;5009353;28;20209;-78
2023/01/16 10:24:53;;;;;;;1.00;1.00;;;;;;;7.33;100.00;99583.94;5009730;28;20287;-77
2023/01/16 10:27:28;;;;;;;0.60;0.60;;;;;;;7.69;100.00;99608.69;5009345;28;20196;-78
2023/01/16 10:30:02;;;;;;;0.50;0.50;;;;;;;7.60;100.00;99624.84;4960425;28;20307;-77
2023/01/16 10:32:33;;;;;;;0.50;0.50;;;;;;;7.60;100.00;99611.09;5032848;28;20214;-78
2023/01/16 10:35:04;;;;;;;1.23;1.23;;;;;;;7.54;100.00;99601.53;5070810;28;20199;-78
2023/01/16 10:37:32;;;;;;;0.70;0.70;;;;;;;7.26;100.00;99597.53;5036210;28;20213;-77
2023/01/16 10:40:01;;;;;;;2.10;2.00;;;;;;;6.89;100.00;99566.69;5070698;28;20195;-77
2023/01/16 10:50:55;;;;;;;1.00;1.00;;;;;;;6.84;100.00;99573.47;5083909;28;20331;-77
2023/01/16 10:53:22;;;;;;;0.80;0.80;;;;;;;7.13;100.00;99567.22;5077508;28;20615;-76
2023/01/16 10:55:52;;;;;;;0.50;0.50;;;;;;;7.03;100.00;99541.22;5077261;28;20195;-77
2023/01/16 10:58:27;;;;;;;0.40;0.40;;;;;;;7.17;100.00;99573.28;5070269;28;20231;-81
2023/01/16 11:00:59;;;;;;;0.60;0.60;;;;;;;7.01;100.00;99537.72;5019766;28;20216;-76
2023/01/16 11:03:33;;;;;;;0.90;0.90;;;;;;;7.16;100.00;99549.22;5083261;28;20198;-75
2023/01/16 11:06:15;;;;;;;1.00;1.00;;;;;;;7.32;100.00;99517.72;5090578;28;20222;-76
2023/01/16 11:08:43;;;;;;;0.60;0.60;;;;;;;7.81;100.00;99541.84;5090764;28;20661;-78
2023/01/16 11:18:27;;;;;;;0.80;0.80;;;;;;;7.92;100.00;99548.03;5076566;28;20245;-77
2023/01/16 11:19:41;;;;;;;0.77;0.77;;;;;;;8.20;100.00;99527.00;5085595;28;20225;-84
2023/01/16 11:22:22;;;;;;;1.63;1.63;;;;;;;8.19;100.00;99550.19;5047317;28;20248;-76
2023/01/16 11:24:49;;;;;;;1.00;1.00;;;;;;;7.69;100.00;99536.44;5024776;28;20198;-74
2023/01/16 11:27:21;;;;;;;1.03;1.03;;;;;;;7.78;100.00;99510.78;5086659;28;20699;-83
2023/01/16 11:29:53;;;;;;;0.67;0.67;;;;;;;8.28;100.00;99519.34;5089162;28;20229;-82
2023/01/16 11:32:24;;;;;;;0.70;0.70;;;;;;;8.04;100.00;99432.06;5074158;28;20199;-87
2023/01/16 11:34:54;;;;;;;0.57;0.57;;;;;;;8.53;100.00;99518.00;5093322;28;20692;-86
2023/01/16 11:37:22;;;;;;;4.70;1.70;;;;;;;8.17;100.00;99495.09;5094474;28;20198;-88
2023/01/16 11:39:51;;;;;;;0.60;0.60;;;;;;;8.36;100.00;99528.97;5094654;28;20201;-85
2023/01/16 11:48:22;;;;;;;1.40;0.70;;;;;;;8.76;100.00;99503.69;5094536;28;20614;-85
2023/01/16 11:50:51;;;;;;;0.60;0.60;;;;;;;8.90;100.00;99523.69;5094263;28;20245;-78
2023/01/16 11:53:17;;;;;;;0.60;0.60;;;;;;;9.16;100.00;99521.44;5042987;28;20206;-80
2023/01/16 11:55:56;;;;;;;0.60;0.60;;;;;;;9.50;100.00;99516.59;5094347;28;20190;-78
2023/01/16 11:58:36;;;;;;;0.40;0.40;;;;;;;9.65;100.00;99521.94;5094271;28;20221;-81
2023/01/16 12:01:11;;;;;;;0.70;0.70;;;;;;;9.46;100.00;99422.56;5093982;28;20209;-77
2023/01/16 12:04:08;;;;;;;0.60;0.60;;;;;;;9.79;100.00;99521.22;5094036;28;20665;-77
2023/01/16 12:06:48;;;;;;;0.70;0.70;;;;;;;9.53;100.00;99520.09;5094191;28;20206;-76
2023/01/16 12:09:46;;;;;;;0.60;0.60;;;;;;;9.51;100.00;99515.75;5093779;28;20202;-78
2023/01/16 12:15:22;;;;;;;0.50;0.50;;;;;;;9.12;100.00;99504.16;5094173;28;20204;-78
2023/01/16 12:18:11;;;;;;;0.50;0.50;;;;;;;9.12;100.00;99490.34;5093926;28;20194;-81
2023/01/16 12:20:51;;;;;;;0.57;0.57;;;;;;;8.67;100.00;99449.31;5093956;28;20205;-77
2023/01/16 12:23:51;;;;;;;0.60;0.60;;;;;;;8.70;100.00;99464.88;5093850;28;20560;-79
2023/01/16 12:26:22;;;;;;;4.20;3.80;;;;;;;8.63;100.00;99475.97;5085036;28;20222;-88
2023/01/16 12:29:13;;;;;;;0.80;0.80;;;;;;;8.55;100.00;99456.91;5073556;28;20206;-85
2023/01/16 12:31:59;;;;;;;0.60;0.60;;;;;;;8.34;100.00;99468.69;5089905;28;20203;-78
2023/01/16 12:34:43;;;;;;;0.93;0.93;;;;;;;8.17;100.00;99454.63;5089816;28;20198;-78
2023/01/16 12:37:26;;;;;;;0.63;0.63;;;;;;;8.36;100.00;99472.16;5073018;28;20601;-81
2023/01/16 12:40:00;;;;;;;0.60;0.60;;;;;;;8.23;100.00;99464.19;5072972;28;20553;-77
2023/01/16 12:45:43;;;;;;;0.60;0.60;;;;;;;8.24;100.00;99450.44;5072866;28;20197;-82
2023/01/16 12:48:45;;;;;;;0.70;0.70;;;;;;;8.37;100.00;99439.47;5072805;28;20217;-80